Terminal Aerodrome Forecast
Issued by NWS

Home | Current Version | Previous Version | Text Only | Print | Product List | Glossary On
Versions: 1 2 3 4 5 6 7 8 9 10 11 12 13 14 15 16 17 18 19 20 21 22 23 24
000
FTUS46 KSEW 272300
TAFOLM
TAF
KOLM 272327Z 2800/2824 03010KT P6SM VCSH BKN014 OVC035
     FM280300 02006KT P6SM SCT014 OVC050
     FM280900 02005KT P6SM BKN100
     FM281100 00000KT 1/2SM FG OVC002
     FM281700 02005KT P6SM SKC=

USA.gov is the U.S. government's official web portal to all federal, state and local government web resources and services.